Algonac, Michigan
Current Conditions -  °F | °C
As of 12:55 PM on Friday 28 Nov 2014 (Local Time) from KMTC Reporting Station
Overcast Overcast  
Wind Chill: 17°   Ceiling: 9000
Heat Index: 25°   Visibility: 10mi
Dew Point: 10°   Wind: 8mph
Humidity: 52%   Direction: 230°SW
Pressure: 30.22"   Gusts: NA
Location:  42.62°N, 82.53°W
Report Text: KMTC 281755Z 23007KT 10SM FEW035 BKN090 OVC120 M04/M12 A3022 RMK SLP253 T10371124 11031 21074 58027
Loading
Personal Weather Stations






























Interactive Weather Map New forecast layout! Learn more

10-Day Weather Forecast

Advertisements
Track Severe Weather on mobile